Time;durP1;ratioP1;P1;durP2;ratioP2;P2;SDS_P1;SDS_P2;PMS_P1;PMS_P2;Temp;Humidity;BMP_temperature;BMP_pressure;BME280_temperature;BME280_humidity;BME280_pressure;Samples;Min_cycle;Max_cycle;Signal;HPM_P1;HPM_P2
2023/01/23 00:00:42;;;;;;;8.20;3.38;;;4.50;79.70;;;;;;4952949;28;20267;-82
2023/01/23 00:03:08;;;;;;;8.63;3.80;;;4.50;79.70;;;;;;4971184;28;20884;-82
2023/01/23 00:05:36;;;;;;;8.07;3.55;;;4.50;79.70;;;;;;4970568;28;20134;-82
2023/01/23 00:08:03;;;;;;;9.57;3.47;;;4.50;79.80;;;;;;4960196;28;20059;-82
2023/01/23 00:10:31;;;;;;;9.53;3.60;;;4.50;79.70;;;;;;4953677;28;20091;-82
2023/01/23 00:12:58;;;;;;;9.55;4.28;;;4.50;79.70;;;;;;4953722;28;20848;-82
2023/01/23 00:15:26;;;;;;;9.15;4.00;;;4.50;79.70;;;;;;4952374;28;20130;-82
2023/01/23 00:17:53;;;;;;;8.73;3.55;;;4.50;79.70;;;;;;4971435;28;20051;-82
2023/01/23 00:20:20;;;;;;;8.98;3.53;;;4.50;79.80;;;;;;4959683;28;20171;-82
2023/01/23 00:22:47;;;;;;;8.13;3.70;;;4.50;79.70;;;;;;4972708;28;20061;-82
2023/01/23 00:25:14;;;;;;;8.27;3.88;;;4.50;79.70;;;;;;4953180;28;20282;-82
2023/01/23 00:27:42;;;;;;;10.00;4.25;;;4.50;79.70;;;;;;4953127;28;20142;-82
2023/01/23 00:30:12;;;;;;;10.15;3.78;;;4.50;79.70;;;;;;4962763;28;20075;-82
2023/01/23 00:32:39;;;;;;;8.32;3.53;;;4.50;79.70;;;;;;4951117;28;20082;-82
2023/01/23 00:35:07;;;;;;;11.07;4.03;;;4.50;79.70;;;;;;4968472;28;20138;-82
2023/01/23 00:37:34;;;;;;;9.80;4.05;;;4.50;79.80;;;;;;4968384;28;20333;-82
2023/01/23 00:40:01;;;;;;;8.27;3.55;;;4.50;79.80;;;;;;4946710;28;20126;-82
2023/01/23 00:42:28;;;;;;;8.88;3.85;;;4.50;79.80;;;;;;4960518;28;20141;-82
2023/01/23 00:44:57;;;;;;;8.50;3.75;;;4.50;79.70;;;;;;4937765;28;20066;-82
2023/01/23 00:47:24;;;;;;;10.23;3.90;;;4.50;79.80;;;;;;4955777;28;20082;-83
2023/01/23 00:49:52;;;;;;;8.35;3.88;;;4.50;79.80;;;;;;4950988;28;20271;-82
2023/01/23 00:52:20;;;;;;;9.40;3.80;;;4.50;79.80;;;;;;4953417;28;20995;-82
2023/01/23 00:54:47;;;;;;;9.07;4.10;;;4.50;79.80;;;;;;4960277;28;20067;-82
2023/01/23 00:57:15;;;;;;;17.67;4.50;;;4.50;79.80;;;;;;4952979;28;20162;-82
2023/01/23 00:59:42;;;;;;;10.13;4.10;;;4.50;79.80;;;;;;4962831;28;20100;-82
2023/01/23 01:02:10;;;;;;;8.55;3.95;;;4.50;79.80;;;;;;4948518;28;20291;-82
2023/01/23 01:04:37;;;;;;;12.05;4.60;;;4.50;79.80;;;;;;4940465;28;20208;-82
2023/01/23 01:07:04;;;;;;;9.48;4.30;;;4.50;79.80;;;;;;4943157;28;20528;-82
2023/01/23 01:09:31;;;;;;;10.07;4.13;;;4.50;79.80;;;;;;4952107;28;21066;-82
2023/01/23 01:11:59;;;;;;;8.87;4.10;;;4.50;79.90;;;;;;4952664;28;20493;-82
2023/01/23 01:14:26;;;;;;;12.90;4.60;;;4.50;79.80;;;;;;4952784;28;20405;-82
2023/01/23 01:16:53;;;;;;;10.00;4.63;;;4.50;79.90;;;;;;4954093;28;20561;-82
2023/01/23 01:19:22;;;;;;;10.77;4.80;;;4.50;79.90;;;;;;4950917;28;20932;-82
2023/01/23 01:24:51;;;;;;;9.00;4.30;;;4.50;79.80;;;;;;4952395;28;20170;-82
2023/01/23 01:27:18;;;;;;;10.77;4.50;;;4.50;79.90;;;;;;4961371;28;20418;-82
2023/01/23 01:29:45;;;;;;;11.50;4.50;;;4.50;79.80;;;;;;4971646;28;20153;-82
2023/01/23 01:32:12;;;;;;;8.93;4.40;;;4.50;79.80;;;;;;4972101;28;20138;-82
2023/01/23 01:34:41;;;;;;;11.00;4.63;;;4.50;79.80;;;;;;4955776;28;20047;-82
2023/01/23 01:37:09;;;;;;;10.73;4.50;;;4.50;79.80;;;;;;4971953;28;20090;-82
2023/01/23 01:39:36;;;;;;;9.60;4.57;;;4.50;79.90;;;;;;4955288;28;20263;-82
2023/01/23 01:42:03;;;;;;;10.52;4.55;;;4.50;79.80;;;;;;4971136;28;20122;-82
2023/01/23 01:44:54;;;;;;;11.02;4.80;;;4.50;80.00;;;;;;4983522;28;20129;-82
2023/01/23 01:47:21;;;;;;;11.85;5.20;;;4.50;79.90;;;;;;4953768;28;20046;-82
2023/01/23 01:49:50;;;;;;;13.93;5.10;;;4.50;79.80;;;;;;4971361;28;20043;-82
2023/01/23 01:52:20;;;;;;;10.25;4.78;;;4.50;79.80;;;;;;4971839;28;20357;-82
2023/01/23 01:54:53;;;;;;;11.80;4.63;;;4.50;79.90;;;;;;4955389;28;20057;-82
2023/01/23 01:57:25;;;;;;;12.38;4.53;;;4.50;79.80;;;;;;4955632;28;20078;-82
2023/01/23 01:59:58;;;;;;;11.55;5.00;;;4.50;79.90;;;;;;4954268;28;20051;-82
2023/01/23 02:02:29;;;;;;;12.57;5.30;;;4.50;79.90;;;;;;4953810;28;20872;-82
2023/01/23 02:05:04;;;;;;;13.10;4.65;;;4.50;79.90;;;;;;4954647;28;20247;-82
2023/01/23 02:07:35;;;;;;;10.55;4.70;;;4.50;80.00;;;;;;4950869;28;20051;-82
2023/01/23 02:10:03;;;;;;;12.38;5.15;;;4.50;79.90;;;;;;4977687;28;20070;-82
2023/01/23 02:13:12;;;;;;;9.18;4.60;;;4.50;80.00;;;;;;4956710;28;20528;-82
2023/01/23 02:15:41;;;;;;;13.60;4.70;;;4.50;79.90;;;;;;4971694;28;20059;-82
2023/01/23 02:18:08;;;;;;;11.18;4.60;;;4.50;80.00;;;;;;4970263;28;20334;-82
2023/01/23 02:20:37;;;;;;;11.32;5.03;;;4.50;80.10;;;;;;4969523;28;20134;-82
2023/01/23 02:23:13;;;;;;;11.45;5.00;;;4.50;80.10;;;;;;4951231;28;20051;-82
2023/01/23 02:25:52;;;;;;;13.25;5.10;;;4.50;80.00;;;;;;4978132;28;20059;-82
2023/01/23 02:28:19;;;;;;;12.90;5.23;;;4.50;80.00;;;;;;4948101;28;20081;-82
2023/01/23 02:30:49;;;;;;;8.93;4.80;;;4.50;80.00;;;;;;4978472;28;20259;-82
2023/01/23 02:33:45;;;;;;;11.80;5.10;;;4.50;80.00;;;;;;4969780;28;20137;-82
2023/01/23 02:36:13;;;;;;;11.32;4.85;;;4.50;80.00;;;;;;4946455;28;20047;-82
2023/01/23 02:38:48;;;;;;;11.23;4.72;;;4.50;80.00;;;;;;4952147;28;21065;-82
2023/01/23 02:41:20;;;;;;;12.70;5.10;;;4.50;80.00;;;;;;4958132;28;20117;-82
2023/01/23 02:43:50;;;;;;;12.38;4.80;;;4.50;79.90;;;;;;4957989;28;20279;-82
2023/01/23 02:46:19;;;;;;;10.25;5.32;;;4.50;80.00;;;;;;4956301;28;20576;-82
2023/01/23 02:48:47;;;;;;;12.57;5.25;;;4.50;80.00;;;;;;4944883;28;20103;-82
2023/01/23 02:51:15;;;;;;;10.30;4.80;;;4.50;80.00;;;;;;4995585;28;20051;-82
2023/01/23 02:53:44;;;;;;;12.63;5.20;;;4.50;80.00;;;;;;4956579;28;20134;-82
2023/01/23 02:56:11;;;;;;;10.73;5.43;;;4.50;80.00;;;;;;4974329;28;20282;-82
2023/01/23 03:01:26;;;;;;;11.65;4.60;;;4.50;80.00;;;;;;4957190;28;20114;-82
2023/01/23 03:03:55;;;;;;;9.73;4.45;;;4.50;80.00;;;;;;4982642;28;20410;-81
2023/01/23 03:06:24;;;;;;;11.20;5.27;;;4.50;80.00;;;;;;4958133;28;20054;-82
2023/01/23 03:08:51;;;;;;;12.77;5.38;;;4.50;80.10;;;;;;4953988;28;20347;-82
2023/01/23 03:11:19;;;;;;;11.77;5.43;;;4.50;80.10;;;;;;5001494;28;20047;-82
2023/01/23 03:13:48;;;;;;;10.88;4.70;;;4.50;80.00;;;;;;4952913;28;20047;-82
2023/01/23 03:16:15;;;;;;;9.77;4.68;;;4.50;80.00;;;;;;4956746;28;20126;-82
2023/01/23 03:18:43;;;;;;;9.90;4.80;;;4.50;80.10;;;;;;4965698;28;21736;-82
2023/01/23 03:21:11;;;;;;;12.13;4.55;;;4.50;80.00;;;;;;4957160;28;20359;-81
2023/01/23 03:23:43;;;;;;;12.35;4.93;;;4.50;80.10;;;;;;4957319;28;20556;-82
2023/01/23 03:26:10;;;;;;;10.57;4.60;;;4.50;80.10;;;;;;4957715;28;20050;-82
2023/01/23 03:31:24;;;;;;;10.97;4.53;;;4.60;80.00;;;;;;4953439;28;20154;-82
2023/01/23 03:33:52;;;;;;;9.77;4.68;;;4.50;80.10;;;;;;4965654;28;20362;-82
2023/01/23 03:36:20;;;;;;;12.70;4.80;;;4.60;80.10;;;;;;4956773;28;20051;-82
2023/01/23 03:41:28;;;;;;;10.20;4.78;;;4.60;80.00;;;;;;4970383;28;20078;-82
2023/01/23 03:44:00;;;;;;;10.00;4.60;;;4.50;80.00;;;;;;4955875;28;20050;-82
2023/01/23 03:46:29;;;;;;;10.38;4.63;;;4.50;80.00;;;;;;4954584;28;20824;-82
2023/01/23 03:48:56;;;;;;;10.43;4.88;;;4.50;80.00;;;;;;4971562;28;20047;-82
2023/01/23 03:51:23;;;;;;;10.18;4.18;;;4.50;80.00;;;;;;4973546;28;20053;-82
2023/01/23 03:53:50;;;;;;;10.05;4.57;;;4.50;80.00;;;;;;4985953;28;20063;-82
2023/01/23 03:56:18;;;;;;;10.47;4.87;;;4.50;80.00;;;;;;4952497;28;20055;-82
2023/01/23 03:58:45;;;;;;;10.45;4.70;;;4.50;80.00;;;;;;4937876;28;20265;-82
2023/01/23 04:01:13;;;;;;;10.90;4.90;;;4.50;80.10;;;;;;4954440;28;20051;-82
2023/01/23 04:03:44;;;;;;;10.98;4.63;;;4.60;80.00;;;;;;4952046;28;20061;-82
2023/01/23 04:06:11;;;;;;;11.07;5.30;;;4.60;80.00;;;;;;4957963;28;20142;-82
2023/01/23 04:08:38;;;;;;;12.70;4.80;;;4.50;80.00;;;;;;4972313;28;20059;-82
2023/01/23 04:11:08;;;;;;;9.27;4.53;;;4.60;80.00;;;;;;4970850;28;20286;-82
2023/01/23 04:13:35;;;;;;;9.70;4.63;;;4.50;80.00;;;;;;4958676;28;20059;-82
2023/01/23 04:16:04;;;;;;;10.23;4.85;;;4.60;79.90;;;;;;4951638;28;20062;-82
2023/01/23 04:18:31;;;;;;;11.38;4.97;;;4.50;80.00;;;;;;4953038;28;20496;-82
2023/01/23 04:21:00;;;;;;;12.17;4.87;;;4.60;79.90;;;;;;4950424;28;20090;-82
2023/01/23 04:23:28;;;;;;;9.45;4.88;;;4.60;80.00;;;;;;4949606;28;20278;-82
2023/01/23 04:25:56;;;;;;;10.48;4.72;;;4.60;79.90;;;;;;4952307;28;20575;-82
2023/01/23 04:28:24;;;;;;;10.98;4.70;;;4.60;79.90;;;;;;4949985;28;20584;-82
2023/01/23 04:30:52;;;;;;;10.18;5.13;;;4.60;80.00;;;;;;4976954;28;20059;-82
2023/01/23 04:33:26;;;;;;;10.77;5.30;;;4.60;79.90;;;;;;4954075;28;20053;-82
2023/01/23 04:35:57;;;;;;;10.98;5.15;;;4.60;80.00;;;;;;4972656;28;20262;-82
2023/01/23 04:38:29;;;;;;;11.70;5.10;;;4.60;80.00;;;;;;4955412;28;20065;-82
2023/01/23 04:40:56;;;;;;;10.23;5.00;;;4.60;80.00;;;;;;4949294;28;20051;-82
2023/01/23 04:43:24;;;;;;;11.60;5.22;;;4.60;80.00;;;;;;4956431;28;20058;-82
2023/01/23 04:45:54;;;;;;;10.27;4.77;;;4.60;80.00;;;;;;4964171;28;20058;-82
2023/01/23 04:48:40;;;;;;;10.27;4.90;;;4.60;80.00;;;;;;4956152;28;20308;-82
2023/01/23 04:51:09;;;;;;;10.30;5.05;;;4.70;79.90;;;;;;4956418;28;20105;-82
2023/01/23 04:53:37;;;;;;;12.30;5.20;;;4.60;80.00;;;;;;4954628;28;20169;-82
2023/01/23 04:56:05;;;;;;;13.05;5.32;;;4.60;80.00;;;;;;4984313;28;20134;-82
2023/01/23 04:58:32;;;;;;;10.53;5.20;;;4.60;80.00;;;;;;4985887;28;20588;-82
2023/01/23 05:01:03;;;;;;;13.07;5.30;;;4.60;80.00;;;;;;4955657;28;20328;-82
2023/01/23 05:03:33;;;;;;;11.90;5.38;;;4.70;80.00;;;;;;4953376;28;20170;-82
2023/01/23 05:06:01;;;;;;;11.52;5.30;;;4.70;80.00;;;;;;4987210;28;20054;-82
2023/01/23 05:08:28;;;;;;;11.18;5.10;;;4.70;79.90;;;;;;4956192;28;20050;-81
2023/01/23 05:11:10;;;;;;;12.83;5.47;;;4.60;80.00;;;;;;4955560;28;20055;-82
2023/01/23 05:13:37;;;;;;;12.30;5.38;;;4.60;80.00;;;;;;4948859;28;20321;-82
2023/01/23 05:16:04;;;;;;;10.85;5.57;;;4.60;80.00;;;;;;4998517;23;20546;-82
2023/01/23 05:18:45;;;;;;;10.20;5.10;;;4.60;80.00;;;;;;5007740;28;21205;-82
2023/01/23 05:21:12;;;;;;;11.95;5.25;;;4.60;80.00;;;;;;4983146;28;20054;-82
2023/01/23 05:23:39;;;;;;;12.73;5.70;;;4.60;80.00;;;;;;5007744;28;20053;-82
2023/01/23 05:26:07;;;;;;;11.25;5.38;;;4.60;80.00;;;;;;4991235;28;20349;-82
2023/01/23 05:28:35;;;;;;;10.65;4.70;;;4.60;79.90;;;;;;5006781;28;20058;-82
2023/01/23 05:31:02;;;;;;;11.98;5.05;;;4.60;80.00;;;;;;4991598;28;21024;-82
2023/01/23 05:33:39;;;;;;;11.43;5.15;;;4.60;80.00;;;;;;5006972;28;20078;-82
2023/01/23 05:36:07;;;;;;;14.40;5.70;;;4.60;80.00;;;;;;4991325;28;20056;-82
2023/01/23 05:38:35;;;;;;;9.45;4.95;;;4.60;80.00;;;;;;5001249;28;20285;-82
2023/01/23 05:41:03;;;;;;;10.68;5.05;;;4.60;80.00;;;;;;4993948;28;20046;-82
2023/01/23 05:43:50;;;;;;;10.82;5.25;;;4.60;80.00;;;;;;4990934;28;20093;-82
2023/01/23 05:46:28;;;;;;;12.23;5.63;;;4.60;80.00;;;;;;4975158;28;20085;-82
2023/01/23 05:48:57;;;;;;;12.27;5.70;;;4.60;80.00;;;;;;5007243;28;20848;-82
2023/01/23 05:51:30;;;;;;;10.80;5.03;;;4.60;80.00;;;;;;4991442;28;20262;-82
2023/01/23 05:53:58;;;;;;;10.65;5.30;;;4.60;80.00;;;;;;4984980;28;20058;-82
2023/01/23 05:56:25;;;;;;;12.95;5.60;;;4.60;80.00;;;;;;4991070;28;20057;-81
2023/01/23 05:59:13;;;;;;;10.45;5.30;;;4.50;79.90;;;;;;5026852;28;20050;-82
2023/01/23 06:01:50;;;;;;;11.03;4.77;;;4.50;80.00;;;;;;4991253;28;20051;-82
2023/01/23 06:04:35;;;;;;;11.73;4.70;;;4.50;80.00;;;;;;5016570;28;20319;-82
2023/01/23 06:07:14;;;;;;;11.70;5.00;;;4.50;80.00;;;;;;4994069;28;20050;-82
2023/01/23 06:09:41;;;;;;;10.80;5.40;;;4.50;79.90;;;;;;4994238;28;20065;-83
2023/01/23 06:12:09;;;;;;;10.57;5.10;;;4.50;79.90;;;;;;5005479;28;20544;-82
2023/01/23 06:14:38;;;;;;;9.73;4.90;;;4.50;80.00;;;;;;4992956;28;20054;-82
2023/01/23 06:17:07;;;;;;;11.07;5.03;;;4.50;80.10;;;;;;4994030;28;20254;-81
2023/01/23 06:19:34;;;;;;;9.55;5.28;;;4.50;80.00;;;;;;4994021;28;20053;-82
2023/01/23 06:22:01;;;;;;;11.23;4.90;;;4.50;80.10;;;;;;4993415;28;20961;-82
2023/01/23 06:24:37;;;;;;;11.43;5.25;;;4.50;80.10;;;;;;4994104;28;20137;-82
2023/01/23 06:27:07;;;;;;;11.90;5.17;;;4.50;80.20;;;;;;4996210;28;20050;-82
2023/01/23 06:29:35;;;;;;;11.70;5.00;;;4.50;80.20;;;;;;4994018;28;20329;-82
2023/01/23 06:32:04;;;;;;;12.65;5.30;;;4.50;80.20;;;;;;4994981;28;21037;-82
2023/01/23 06:34:31;;;;;;;9.82;5.18;;;4.50;80.30;;;;;;4982407;28;20552;-82
2023/01/23 06:37:02;;;;;;;12.02;4.82;;;4.50;80.20;;;;;;4991305;28;20051;-82
2023/01/23 06:39:30;;;;;;;11.40;5.07;;;4.50;80.30;;;;;;4992894;28;20050;-82
2023/01/23 06:41:57;;;;;;;10.48;5.15;;;4.50;80.20;;;;;;4990202;28;20350;-82
2023/01/23 06:44:24;;;;;;;11.05;5.30;;;4.50;80.20;;;;;;4990234;28;20436;-82
2023/01/23 06:46:53;;;;;;;10.45;5.13;;;4.50;80.10;;;;;;4973959;28;20850;-82
2023/01/23 06:49:24;;;;;;;11.38;4.82;;;4.50;80.10;;;;;;4987416;28;20062;-82
2023/01/23 06:51:52;;;;;;;11.63;5.30;;;4.60;80.10;;;;;;5008854;28;20133;-81
2023/01/23 06:54:21;;;;;;;11.15;5.15;;;4.50;80.10;;;;;;4985185;28;20305;-82
2023/01/23 06:56:50;;;;;;;10.93;5.30;;;4.60;80.10;;;;;;5008953;28;20262;-86
2023/01/23 06:59:17;;;;;;;11.52;4.95;;;4.50;80.10;;;;;;4991132;28;20061;-83
2023/01/23 07:01:44;;;;;;;9.55;4.90;;;4.60;80.10;;;;;;4994513;28;20046;-78
2023/01/23 07:04:20;;;;;;;9.93;5.17;;;4.60;80.10;;;;;;5009079;28;20059;-79
2023/01/23 07:06:51;;;;;;;10.55;4.60;;;4.60;80.10;;;;;;5005960;28;20295;-78
2023/01/23 07:09:20;;;;;;;12.32;5.30;;;4.60;80.10;;;;;;4992468;28;20178;-78
2023/01/23 07:12:07;;;;;;;11.27;5.07;;;4.60;80.10;;;;;;5001234;28;20058;-79
2023/01/23 07:14:35;;;;;;;10.80;5.30;;;4.60;80.10;;;;;;4998228;28;20050;-79
2023/01/23 07:17:02;;;;;;;10.23;5.40;;;4.60;80.00;;;;;;5006017;28;20050;-78
2023/01/23 07:19:30;;;;;;;9.25;4.80;;;4.60;80.00;;;;;;5007634;28;20255;-77
2023/01/23 07:22:01;;;;;;;10.18;5.15;;;4.50;80.10;;;;;;4990780;28;20089;-77
2023/01/23 07:24:30;;;;;;;11.30;5.45;;;4.50;80.00;;;;;;5021505;28;20534;-77
2023/01/23 07:26:57;;;;;;;11.40;5.55;;;4.50;80.10;;;;;;5009303;28;20058;-78
2023/01/23 07:29:25;;;;;;;11.37;5.53;;;4.50;80.00;;;;;;5016958;28;20049;-78
2023/01/23 07:31:52;;;;;;;9.68;5.15;;;4.50;80.10;;;;;;5021253;28;20266;-78
2023/01/23 07:34:19;;;;;;;10.52;5.28;;;4.50;80.10;;;;;;5009281;28;20078;-78
2023/01/23 07:36:46;;;;;;;12.30;5.50;;;4.50;80.10;;;;;;4990873;28;20058;-78
2023/01/23 07:39:15;;;;;;;12.32;5.80;;;4.50;80.10;;;;;;5002750;28;20970;-78
2023/01/23 07:41:42;;;;;;;11.13;5.33;;;4.50;80.00;;;;;;5006975;28;20099;-78
2023/01/23 07:44:16;;;;;;;11.73;5.35;;;4.50;80.10;;;;;;4990936;28;21254;-79
2023/01/23 07:46:43;;;;;;;11.43;5.05;;;4.50;80.10;;;;;;4980807;28;20560;-78
2023/01/23 07:49:10;;;;;;;13.48;5.47;;;4.50;80.20;;;;;;5008365;28;20835;-78
2023/01/23 07:51:37;;;;;;;10.07;5.32;;;4.50;80.10;;;;;;5018664;28;20054;-79
2023/01/23 07:54:05;;;;;;;11.17;5.37;;;4.50;80.10;;;;;;5022977;28;20145;-79
2023/01/23 07:56:33;;;;;;;10.77;5.38;;;4.50;80.10;;;;;;5002748;28;20310;-79
2023/01/23 07:59:01;;;;;;;10.85;5.53;;;4.50;80.10;;;;;;5011711;28;20492;-77
2023/01/23 08:01:28;;;;;;;10.10;4.78;;;4.50;80.00;;;;;;5007202;28;20150;-77
2023/01/23 08:03:55;;;;;;;10.77;5.28;;;4.40;80.10;;;;;;5009915;28;20491;-78
2023/01/23 08:06:22;;;;;;;10.80;5.33;;;4.40;80.10;;;;;;5012667;28;20165;-78
2023/01/23 08:08:50;;;;;;;11.43;5.18;;;4.30;80.20;;;;;;5010387;28;20254;-77
2023/01/23 08:11:17;;;;;;;11.50;5.20;;;4.30;80.30;;;;;;5014090;28;20133;-77
2023/01/23 08:13:49;;;;;;;13.48;5.82;;;4.30;80.40;;;;;;4997011;28;20795;-77
2023/01/23 08:16:16;;;;;;;10.75;5.40;;;4.30;80.50;;;;;;5013675;28;20054;-77
2023/01/23 08:18:43;;;;;;;12.30;5.67;;;4.30;80.60;;;;;;5013315;28;20053;-77
2023/01/23 08:21:10;;;;;;;11.45;5.53;;;4.30;80.60;;;;;;5015431;28;20257;-77
2023/01/23 08:23:38;;;;;;;11.30;5.60;;;4.30;80.70;;;;;;5021154;28;20054;-77
2023/01/23 08:26:07;;;;;;;12.02;6.10;;;4.30;80.70;;;;;;5023835;28;20579;-77
2023/01/23 08:28:35;;;;;;;11.65;5.35;;;4.30;80.70;;;;;;5020478;28;20049;-78
2023/01/23 08:31:06;;;;;;;10.93;5.10;;;4.30;80.70;;;;;;5020054;28;20049;-77
2023/01/23 08:33:33;;;;;;;13.00;5.53;;;4.30;80.60;;;;;;4992418;28;20305;-77
2023/01/23 08:36:01;;;;;;;10.10;4.95;;;4.30;80.70;;;;;;5017594;28;20141;-77
2023/01/23 08:38:28;;;;;;;12.43;5.65;;;4.30;80.70;;;;;;5011909;28;20169;-77
2023/01/23 08:40:59;;;;;;;10.30;4.80;;;4.30;80.80;;;;;;5024632;28;20148;-77
2023/01/23 08:43:26;;;;;;;11.60;5.60;;;4.20;80.80;;;;;;5014430;28;20050;-81
2023/01/23 08:45:55;;;;;;;10.48;6.13;;;4.20;80.80;;;;;;5013324;28;20253;-81
2023/01/23 08:48:25;;;;;;;9.75;4.57;;;4.20;80.90;;;;;;5025571;28;20815;-80
2023/01/23 08:50:59;;;;;;;13.60;5.20;;;4.10;81.00;;;;;;5011421;28;20123;-81
2023/01/23 08:53:26;;;;;;;9.90;4.80;;;4.10;81.00;;;;;;5027725;28;20131;-82
2023/01/23 08:55:54;;;;;;;10.50;4.93;;;4.10;81.10;;;;;;5019706;28;20054;-84
2023/01/23 08:58:21;;;;;;;11.90;5.78;;;4.00;81.20;;;;;;4997175;28;20380;-83
2023/01/23 09:00:48;;;;;;;10.10;5.10;;;4.00;81.40;;;;;;5007022;28;20822;-83
2023/01/23 09:03:15;;;;;;;9.68;4.45;;;4.00;81.40;;;;;;4990022;28;20053;-83
2023/01/23 09:05:44;;;;;;;10.50;4.38;;;4.00;81.40;;;;;;5006813;28;20225;-83
2023/01/23 09:08:11;;;;;;;10.07;5.33;;;4.10;81.60;;;;;;4991288;28;20516;-84
2023/01/23 09:10:38;;;;;;;12.25;4.90;;;4.10;81.50;;;;;;4992961;28;20341;-83
2023/01/23 09:13:06;;;;;;;9.57;4.72;;;4.10;81.60;;;;;;5001619;28;20117;-83
2023/01/23 09:15:33;;;;;;;12.88;5.10;;;4.10;81.60;;;;;;5008982;28;20050;-84
2023/01/23 09:18:00;;;;;;;10.48;4.60;;;4.10;81.50;;;;;;4990223;28;20125;-83
2023/01/23 09:20:28;;;;;;;10.47;5.10;;;4.20;81.50;;;;;;4989838;28;20062;-84
2023/01/23 09:22:57;;;;;;;10.60;4.93;;;4.20;81.50;;;;;;4991129;28;20293;-83
2023/01/23 09:25:24;;;;;;;8.63;4.20;;;4.20;81.50;;;;;;4990493;28;20496;-82
2023/01/23 09:27:51;;;;;;;9.43;4.50;;;4.20;81.60;;;;;;5008186;28;20501;-84
2023/01/23 09:30:19;;;;;;;9.35;4.22;;;4.20;81.60;;;;;;4989851;28;20043;-84
2023/01/23 09:32:46;;;;;;;9.60;4.57;;;4.30;81.60;;;;;;5006755;28;20105;-83
2023/01/23 09:35:13;;;;;;;8.27;4.30;;;4.30;81.50;;;;;;5026174;28;20320;-82
2023/01/23 09:40:31;;;;;;;7.85;3.70;;;4.30;81.60;;;;;;5029584;28;20046;-86
2023/01/23 09:43:05;;;;;;;10.43;4.10;;;4.40;81.50;;;;;;5010046;28;20054;-86
2023/01/23 09:45:34;;;;;;;11.27;4.30;;;4.40;81.40;;;;;;4995328;28;20050;-88
2023/01/23 09:48:13;;;;;;;9.40;4.13;;;4.40;81.40;;;;;;4995435;28;20261;-82
2023/01/23 09:50:56;;;;;;;8.77;4.22;;;4.40;81.40;;;;;;5002640;28;20439;-81
2023/01/23 09:53:26;;;;;;;9.07;4.07;;;4.40;81.40;;;;;;4991634;28;20054;-81
2023/01/23 09:55:59;;;;;;;8.68;3.92;;;4.50;81.40;;;;;;5009235;28;20055;-81
2023/01/23 09:58:31;;;;;;;9.30;4.37;;;4.50;81.40;;;;;;4991934;28;20525;-81
2023/01/23 10:00:59;;;;;;;10.95;3.95;;;4.50;81.30;;;;;;4986208;28;20662;-81
2023/01/23 10:03:30;;;;;;;9.63;3.95;;;4.50;81.40;;;;;;5030910;28;20506;-81
2023/01/23 10:06:11;;;;;;;9.10;4.30;;;4.50;81.30;;;;;;5014514;28;20050;-81
2023/01/23 10:08:43;;;;;;;8.18;3.95;;;4.50;81.30;;;;;;5014694;28;20116;-80
2023/01/23 10:11:19;;;;;;;8.50;4.03;;;4.50;81.20;;;;;;5011507;28;20129;-80
2023/01/23 10:14:05;;;;;;;10.60;4.05;;;4.50;81.10;;;;;;5027349;28;20288;-80
2023/01/23 10:16:48;;;;;;;7.45;3.67;;;4.60;81.10;;;;;;5027039;28;20516;-80
2023/01/23 10:19:30;;;;;;;8.00;3.72;;;4.60;81.00;;;;;;5038555;28;20574;-79
2023/01/23 10:22:04;;;;;;;7.18;3.35;;;4.60;81.00;;;;;;4994370;28;20424;-82
2023/01/23 10:24:41;;;;;;;7.83;3.93;;;4.60;81.00;;;;;;5012377;28;20129;-83
2023/01/23 10:27:18;;;;;;;7.28;3.20;;;4.70;80.80;;;;;;5013791;28;20246;-81
2023/01/23 10:29:49;;;;;;;8.35;3.70;;;4.70;80.70;;;;;;5017784;28;20060;-81
2023/01/23 10:32:24;;;;;;;8.05;3.58;;;4.70;80.80;;;;;;5013891;28;20053;-81
2023/01/23 10:34:59;;;;;;;7.45;4.00;;;4.60;80.80;;;;;;5010722;28;20575;-81
2023/01/23 10:37:40;;;;;;;7.17;4.00;;;4.60;80.90;;;;;;5010238;28;20060;-81
2023/01/23 10:40:13;;;;;;;8.60;3.67;;;4.70;80.90;;;;;;4990744;28;20656;-81
2023/01/23 10:42:42;;;;;;;7.65;4.07;;;4.70;80.80;;;;;;5006765;28;20058;-80
2023/01/23 10:45:17;;;;;;;7.28;3.83;;;4.70;80.80;;;;;;5012224;28;20485;-81
2023/01/23 10:47:46;;;;;;;8.65;4.18;;;4.70;80.80;;;;;;5010286;28;20078;-81
2023/01/23 10:50:13;;;;;;;7.50;3.90;;;4.70;80.80;;;;;;5009066;28;20160;-81
2023/01/23 10:52:43;;;;;;;7.43;3.35;;;4.70;80.70;;;;;;5009290;28;20339;-80
2023/01/23 10:55:29;;;;;;;6.50;3.60;;;4.70;80.60;;;;;;5012358;28;20089;-81
2023/01/23 10:58:01;;;;;;;7.43;3.63;;;4.70;80.50;;;;;;5026411;28;20128;-80
2023/01/23 11:00:35;;;;;;;8.40;3.47;;;4.70;80.50;;;;;;4993256;28;20054;-80
2023/01/23 11:03:26;;;;;;;8.57;3.47;;;4.70;80.50;;;;;;5023243;28;20056;-81
2023/01/23 11:06:01;;;;;;;6.93;3.70;;;4.70;80.50;;;;;;5011427;28;20301;-83
2023/01/23 11:08:30;;;;;;;8.18;3.80;;;4.70;80.50;;;;;;5010270;28;20125;-81
2023/01/23 11:11:19;;;;;;;8.23;3.50;;;4.70;80.50;;;;;;4991498;28;20140;-77
2023/01/23 11:13:50;;;;;;;7.88;3.58;;;4.80;80.50;;;;;;5008422;28;20058;-81
2023/01/23 11:16:21;;;;;;;8.10;3.70;;;4.80;80.50;;;;;;5007663;28;20918;-81
2023/01/23 11:18:54;;;;;;;6.97;2.97;;;4.80;80.50;;;;;;5014129;28;20359;-83
2023/01/23 11:21:22;;;;;;;7.30;3.28;;;4.80;80.40;;;;;;5012908;28;20054;-82
2023/01/23 11:24:06;;;;;;;9.35;3.45;;;4.80;80.50;;;;;;5021639;28;20528;-80
2023/01/23 11:26:35;;;;;;;8.50;3.28;;;4.90;80.40;;;;;;4991113;28;20214;-80
2023/01/23 11:29:20;;;;;;;7.70;3.53;;;4.90;80.40;;;;;;5008464;28;20064;-80
2023/01/23 11:31:49;;;;;;;8.27;3.55;;;4.90;80.20;;;;;;5001143;28;20262;-80
2023/01/23 11:34:23;;;;;;;6.68;3.50;;;4.90;80.20;;;;;;5007874;28;20165;-80
2023/01/23 11:36:57;;;;;;;8.70;3.60;;;4.90;80.30;;;;;;4991657;28;20141;-80
2023/01/23 11:39:37;;;;;;;8.07;3.80;;;4.90;80.20;;;;;;5009737;28;20141;-81
2023/01/23 11:42:04;;;;;;;6.77;3.50;;;4.90;80.20;;;;;;5009759;28;20137;-81
2023/01/23 11:44:33;;;;;;;7.78;3.45;;;4.90;80.30;;;;;;5009579;28;20262;-81
2023/01/23 11:47:15;;;;;;;7.88;3.70;;;4.90;80.10;;;;;;4995353;28;20527;-81
2023/01/23 11:50:03;;;;;;;7.97;3.85;;;4.90;80.00;;;;;;5009311;28;20057;-81
2023/01/23 11:52:42;;;;;;;8.55;3.80;;;4.90;80.00;;;;;;5040758;28;21070;-81
2023/01/23 11:55:26;;;;;;;7.10;3.37;;;4.90;80.00;;;;;;5013050;28;20546;-80
2023/01/23 11:58:04;;;;;;;7.70;3.40;;;4.90;80.10;;;;;;5012562;28;21164;-82
2023/01/23 12:00:39;;;;;;;7.70;3.33;;;4.90;80.10;;;;;;5023460;28;20108;-81
2023/01/23 12:03:36;;;;;;;7.07;3.60;;;4.90;80.00;;;;;;4999324;28;20057;-84
2023/01/23 12:06:25;;;;;;;7.53;3.30;;;5.00;80.00;;;;;;5036398;28;20050;-81
2023/01/23 12:09:02;;;;;;;7.03;3.50;;;5.00;80.00;;;;;;4988381;28;20134;-74
2023/01/23 12:11:40;;;;;;;7.72;3.80;;;5.00;79.90;;;;;;5008973;28;20286;-81
2023/01/23 12:14:15;;;;;;;9.30;3.70;;;5.00;80.00;;;;;;5014537;28;20050;-78
2023/01/23 12:16:57;;;;;;;7.43;3.53;;;5.00;79.80;;;;;;5018108;28;20055;-79
2023/01/23 12:19:39;;;;;;;7.18;3.90;;;5.00;79.80;;;;;;5007961;28;20588;-81
2023/01/23 12:22:14;;;;;;;8.10;3.90;;;5.00;79.70;;;;;;4998991;28;20046;-81
2023/01/23 12:25:00;;;;;;;8.43;4.05;;;5.00;79.70;;;;;;5010469;28;20342;-80
2023/01/23 12:27:40;;;;;;;8.40;4.25;;;5.00;79.80;;;;;;5008923;28;20146;-81
2023/01/23 12:30:37;;;;;;;8.32;3.80;;;5.00;79.80;;;;;;4988323;28;20141;-83
2023/01/23 12:33:20;;;;;;;9.43;3.97;;;5.00;79.80;;;;;;4986725;28;20058;-82
2023/01/23 12:35:56;;;;;;;7.97;4.00;;;5.00;80.00;;;;;;4987334;28;20085;-81
2023/01/23 12:38:55;;;;;;;8.63;4.05;;;5.00;80.00;;;;;;4991939;28;20330;-81
2023/01/23 12:41:33;;;;;;;8.13;4.25;;;5.00;80.00;;;;;;4987069;28;20133;-83
2023/01/23 12:44:08;;;;;;;8.60;3.63;;;5.00;80.00;;;;;;4994486;28;20153;-82
2023/01/23 12:46:41;;;;;;;9.52;4.10;;;5.00;80.00;;;;;;5006513;28;20701;-84
2023/01/23 12:49:19;;;;;;;8.90;4.17;;;5.00;80.00;;;;;;5015694;28;20405;-82
2023/01/23 12:51:52;;;;;;;8.68;3.88;;;5.00;80.00;;;;;;4998615;28;20313;-83
2023/01/23 12:54:28;;;;;;;7.57;4.10;;;5.10;80.00;;;;;;5015077;28;20054;-83
2023/01/23 12:56:56;;;;;;;7.60;3.63;;;5.10;79.90;;;;;;5007064;28;20069;-84
2023/01/23 12:59:32;;;;;;;9.20;3.95;;;5.10;79.80;;;;;;4991364;28;20136;-83
2023/01/23 13:02:10;;;;;;;10.50;5.03;;;5.10;79.80;;;;;;5002141;28;20061;-83
2023/01/23 13:04:53;;;;;;;8.52;4.10;;;5.10;79.90;;;;;;5004263;28;20652;-81
2023/01/23 13:07:30;;;;;;;8.85;4.50;;;5.10;79.80;;;;;;4993608;28;20614;-82
2023/01/23 13:13:34;;;;;;;10.70;4.65;;;5.10;79.80;;;;;;4914330;28;20565;-87
2023/01/23 13:16:04;;;;;;;10.53;4.60;;;5.20;79.70;;;;;;4934865;28;20147;-85
2023/01/23 13:21:59;;;;;;;11.20;4.85;;;5.10;79.60;;;;;;4976059;28;20282;-84
2023/01/23 13:27:45;;;;;;;10.50;5.30;;;5.20;79.50;;;;;;4999390;28;20397;-84
2023/01/23 13:30:40;;;;;;;9.97;4.67;;;5.20;79.60;;;;;;4999508;28;20503;-84
2023/01/23 13:33:47;;;;;;;10.27;5.07;;;5.20;79.50;;;;;;4994349;28;20317;-84
2023/01/23 13:36:27;;;;;;;11.25;5.30;;;5.20;79.50;;;;;;5007678;28;20133;-84